sensor_id;sensor_type;location;lat;lon;timestamp;temperature;humidity
15343;DHT22;7771;48.478;8.936;2023-08-07T00:02:03;14.40;99.90
15343;DHT22;7771;48.478;8.936;2023-08-07T00:04:31;14.40;99.90
15343;DHT22;7771;48.478;8.936;2023-08-07T00:06:58;14.40;99.90
15343;DHT22;7771;48.478;8.936;2023-08-07T00:11:53;14.40;99.90
15343;DHT22;7771;48.478;8.936;2023-08-07T00:14:20;14.40;99.90
15343;DHT22;7771;48.478;8.936;2023-08-07T00:16:47;14.40;99.90
15343;DHT22;7771;48.478;8.936;2023-08-07T00:19:14;14.40;99.90
15343;DHT22;7771;48.478;8.936;2023-08-07T00:21:40;14.40;99.90
15343;DHT22;7771;48.478;8.936;2023-08-07T00:24:07;14.40;99.90
15343;DHT22;7771;48.478;8.936;2023-08-07T00:26:34;14.40;99.90
15343;DHT22;7771;48.478;8.936;2023-08-07T00:29:01;14.40;99.90
15343;DHT22;7771;48.478;8.936;2023-08-07T00:31:28;14.40;99.90
15343;DHT22;7771;48.478;8.936;2023-08-07T00:33:55;14.30;99.90
15343;DHT22;7771;48.478;8.936;2023-08-07T00:36:21;14.40;99.90
15343;DHT22;7771;48.478;8.936;2023-08-07T00:38:50;14.30;99.90
15343;DHT22;7771;48.478;8.936;2023-08-07T00:41:17;14.30;99.90
15343;DHT22;7771;48.478;8.936;2023-08-07T00:43:43;14.30;99.90
15343;DHT22;7771;48.478;8.936;2023-08-07T00:46:11;14.20;99.90
15343;DHT22;7771;48.478;8.936;2023-08-07T00:51:05;14.30;99.90
15343;DHT22;7771;48.478;8.936;2023-08-07T00:53:32;14.30;99.90
15343;DHT22;7771;48.478;8.936;2023-08-07T00:56:00;14.20;99.90
15343;DHT22;7771;48.478;8.936;2023-08-07T00:58:26;14.10;99.90
15343;DHT22;7771;48.478;8.936;2023-08-07T01:00:53;14.10;99.90
15343;DHT22;7771;48.478;8.936;2023-08-07T01:03:20;14.10;99.90
15343;DHT22;7771;48.478;8.936;2023-08-07T01:05:47;14.10;99.90
15343;DHT22;7771;48.478;8.936;2023-08-07T01:13:46;14.00;99.90
15343;DHT22;7771;48.478;8.936;2023-08-07T01:16:13;14.00;99.90
15343;DHT22;7771;48.478;8.936;2023-08-07T01:18:38;14.00;99.90
15343;DHT22;7771;48.478;8.936;2023-08-07T01:21:05;14.00;99.90
15343;DHT22;7771;48.478;8.936;2023-08-07T01:23:32;14.00;99.90
15343;DHT22;7771;48.478;8.936;2023-08-07T01:25:59;13.90;99.90
15343;DHT22;7771;48.478;8.936;2023-08-07T01:28:30;13.90;99.90
15343;DHT22;7771;48.478;8.936;2023-08-07T01:30:55;13.90;99.90
15343;DHT22;7771;48.478;8.936;2023-08-07T01:33:22;13.90;99.90
15343;DHT22;7771;48.478;8.936;2023-08-07T01:35:51;13.90;99.90
15343;DHT22;7771;48.478;8.936;2023-08-07T01:38:17;13.80;99.90
15343;DHT22;7771;48.478;8.936;2023-08-07T01:40:43;13.90;99.90
15343;DHT22;7771;48.478;8.936;2023-08-07T01:43:11;13.80;99.90
15343;DHT22;7771;48.478;8.936;2023-08-07T01:48:06;13.80;99.90
15343;DHT22;7771;48.478;8.936;2023-08-07T01:50:32;13.80;99.90
15343;DHT22;7771;48.478;8.936;2023-08-07T01:52:59;13.70;99.90
15343;DHT22;7771;48.478;8.936;2023-08-07T01:55:26;13.70;99.90
15343;DHT22;7771;48.478;8.936;2023-08-07T01:57:53;13.70;99.90
15343;DHT22;7771;48.478;8.936;2023-08-07T02:00:20;13.60;99.90
15343;DHT22;7771;48.478;8.936;2023-08-07T02:02:48;13.60;99.90
15343;DHT22;7771;48.478;8.936;2023-08-07T02:05:15;13.70;99.90
15343;DHT22;7771;48.478;8.936;2023-08-07T02:07:42;13.70;99.90
15343;DHT22;7771;48.478;8.936;2023-08-07T02:10:09;13.60;99.90
15343;DHT22;7771;48.478;8.936;2023-08-07T02:15:05;13.60;99.90
15343;DHT22;7771;48.478;8.936;2023-08-07T02:20:00;13.60;99.90
15343;DHT22;7771;48.478;8.936;2023-08-07T02:22:27;13.60;99.90
15343;DHT22;7771;48.478;8.936;2023-08-07T02:24:54;13.60;99.90
15343;DHT22;7771;48.478;8.936;2023-08-07T02:27:21;13.60;99.90
15343;DHT22;7771;48.478;8.936;2023-08-07T02:29:47;13.60;99.90
15343;DHT22;7771;48.478;8.936;2023-08-07T02:32:14;13.70;99.90
15343;DHT22;7771;48.478;8.936;2023-08-07T02:34:41;13.60;99.90
15343;DHT22;7771;48.478;8.936;2023-08-07T02:37:08;13.60;99.90
15343;DHT22;7771;48.478;8.936;2023-08-07T02:39:35;13.70;99.90
15343;DHT22;7771;48.478;8.936;2023-08-07T02:42:02;13.60;99.90
15343;DHT22;7771;48.478;8.936;2023-08-07T02:44:30;13.60;99.90
15343;DHT22;7771;48.478;8.936;2023-08-07T02:49:25;13.60;99.90
15343;DHT22;7771;48.478;8.936;2023-08-07T02:51:54;13.60;99.90
15343;DHT22;7771;48.478;8.936;2023-08-07T02:54:20;13.60;99.90
15343;DHT22;7771;48.478;8.936;2023-08-07T02:59:15;13.60;99.90
15343;DHT22;7771;48.478;8.936;2023-08-07T03:01:43;13.60;99.90
15343;DHT22;7771;48.478;8.936;2023-08-07T03:04:08;13.60;99.90
15343;DHT22;7771;48.478;8.936;2023-08-07T03:06:35;13.60;99.90
15343;DHT22;7771;48.478;8.936;2023-08-07T03:09:02;13.60;99.90
15343;DHT22;7771;48.478;8.936;2023-08-07T03:11:30;13.60;99.90
15343;DHT22;7771;48.478;8.936;2023-08-07T03:13:57;13.60;99.90
15343;DHT22;7771;48.478;8.936;2023-08-07T03:16:24;13.60;99.90
15343;DHT22;7771;48.478;8.936;2023-08-07T03:18:51;13.60;99.90
15343;DHT22;7771;48.478;8.936;2023-08-07T03:21:19;13.60;99.90
15343;DHT22;7771;48.478;8.936;2023-08-07T03:23:45;13.50;99.90
15343;DHT22;7771;48.478;8.936;2023-08-07T03:28:40;13.50;99.90
15343;DHT22;7771;48.478;8.936;2023-08-07T03:31:08;13.50;99.90
15343;DHT22;7771;48.478;8.936;2023-08-07T03:33:35;13.50;99.90
15343;DHT22;7771;48.478;8.936;2023-08-07T03:36:03;13.50;99.90
15343;DHT22;7771;48.478;8.936;2023-08-07T03:38:30;13.50;99.90
15343;DHT22;7771;48.478;8.936;2023-08-07T03:40:56;13.50;99.90
15343;DHT22;7771;48.478;8.936;2023-08-07T03:43:24;13.40;99.90
15343;DHT22;7771;48.478;8.936;2023-08-07T03:45:54;13.40;99.90
15343;DHT22;7771;48.478;8.936;2023-08-07T03:48:20;13.40;99.90
15343;DHT22;7771;48.478;8.936;2023-08-07T03:50:46;13.30;99.90
15343;DHT22;7771;48.478;8.936;2023-08-07T03:53:14;13.30;99.90
15343;DHT22;7771;48.478;8.936;2023-08-07T03:55:40;13.30;99.90
15343;DHT22;7771;48.478;8.936;2023-08-07T03:58:07;13.20;99.90
15343;DHT22;7771;48.478;8.936;2023-08-07T04:00:34;13.30;99.90
15343;DHT22;7771;48.478;8.936;2023-08-07T04:03:01;13.20;99.90
15343;DHT22;7771;48.478;8.936;2023-08-07T04:05:28;13.20;99.90
15343;DHT22;7771;48.478;8.936;2023-08-07T04:07:56;13.20;99.90
15343;DHT22;7771;48.478;8.936;2023-08-07T04:10:23;13.20;99.90
15343;DHT22;7771;48.478;8.936;2023-08-07T04:12:50;13.20;99.90
15343;DHT22;7771;48.478;8.936;2023-08-07T04:15:17;13.20;99.90
15343;DHT22;7771;48.478;8.936;2023-08-07T04:17:44;13.10;99.90
15343;DHT22;7771;48.478;8.936;2023-08-07T04:20:11;13.10;99.90
15343;DHT22;7771;48.478;8.936;2023-08-07T04:25:06;13.10;99.90
15343;DHT22;7771;48.478;8.936;2023-08-07T04:27:33;13.10;99.90
15343;DHT22;7771;48.478;8.936;2023-08-07T04:30:00;13.10;99.90
15343;DHT22;7771;48.478;8.936;2023-08-07T04:32:27;13.00;99.90
15343;DHT22;7771;48.478;8.936;2023-08-07T04:34:54;13.00;99.90
15343;DHT22;7771;48.478;8.936;2023-08-07T04:37:20;13.00;99.90
15343;DHT22;7771;48.478;8.936;2023-08-07T04:39:47;13.00;99.90
15343;DHT22;7771;48.478;8.936;2023-08-07T04:42:15;13.00;99.90
15343;DHT22;7771;48.478;8.936;2023-08-07T04:44:42;13.00;99.90
15343;DHT22;7771;48.478;8.936;2023-08-07T04:49:38;13.00;99.90
15343;DHT22;7771;48.478;8.936;2023-08-07T04:52:04;13.10;99.90
15343;DHT22;7771;48.478;8.936;2023-08-07T04:54:32;13.10;99.90
15343;DHT22;7771;48.478;8.936;2023-08-07T04:56:59;13.10;99.90
15343;DHT22;7771;48.478;8.936;2023-08-07T04:59:26;13.10;99.90
15343;DHT22;7771;48.478;8.936;2023-08-07T05:01:54;13.10;99.90
15343;DHT22;7771;48.478;8.936;2023-08-07T05:04:21;13.10;99.90
15343;DHT22;7771;48.478;8.936;2023-08-07T05:06:47;13.10;99.90
15343;DHT22;7771;48.478;8.936;2023-08-07T05:09:15;13.10;99.90
15343;DHT22;7771;48.478;8.936;2023-08-07T05:14:11;13.20;99.90
15343;DHT22;7771;48.478;8.936;2023-08-07T05:16:39;13.20;99.90
15343;DHT22;7771;48.478;8.936;2023-08-07T05:19:05;13.30;99.90
15343;DHT22;7771;48.478;8.936;2023-08-07T05:21:32;13.40;99.90
15343;DHT22;7771;48.478;8.936;2023-08-07T05:24:00;13.40;99.90
15343;DHT22;7771;48.478;8.936;2023-08-07T05:26:26;13.40;99.90
15343;DHT22;7771;48.478;8.936;2023-08-07T05:28:54;13.40;99.90
15343;DHT22;7771;48.478;8.936;2023-08-07T05:31:21;13.50;99.90
15343;DHT22;7771;48.478;8.936;2023-08-07T05:33:48;13.50;99.90
15343;DHT22;7771;48.478;8.936;2023-08-07T05:36:16;13.50;99.90
15343;DHT22;7771;48.478;8.936;2023-08-07T05:38:44;13.50;99.90
15343;DHT22;7771;48.478;8.936;2023-08-07T05:41:10;13.50;99.90
15343;DHT22;7771;48.478;8.936;2023-08-07T05:43:37;13.60;99.90
15343;DHT22;7771;48.478;8.936;2023-08-07T05:46:04;13.60;99.90
15343;DHT22;7771;48.478;8.936;2023-08-07T05:58:23;13.90;99.90
15343;DHT22;7771;48.478;8.936;2023-08-07T06:00:49;14.00;99.90
15343;DHT22;7771;48.478;8.936;2023-08-07T06:03:17;14.10;99.90
15343;DHT22;7771;48.478;8.936;2023-08-07T06:05:44;14.20;99.90
15343;DHT22;7771;48.478;8.936;2023-08-07T06:08:11;14.30;99.90
15343;DHT22;7771;48.478;8.936;2023-08-07T06:13:06;14.50;99.90
15343;DHT22;7771;48.478;8.936;2023-08-07T06:15:33;14.70;99.90
15343;DHT22;7771;48.478;8.936;2023-08-07T06:18:00;14.80;99.90
15343;DHT22;7771;48.478;8.936;2023-08-07T06:20:27;14.90;99.90
15343;DHT22;7771;48.478;8.936;2023-08-07T06:22:54;15.00;99.90
15343;DHT22;7771;48.478;8.936;2023-08-07T06:27:50;15.20;99.90
15343;DHT22;7771;48.478;8.936;2023-08-07T06:30:18;15.20;99.90
15343;DHT22;7771;48.478;8.936;2023-08-07T06:32:44;15.30;99.90
15343;DHT22;7771;48.478;8.936;2023-08-07T06:35:11;15.40;99.90
15343;DHT22;7771;48.478;8.936;2023-08-07T06:37:38;15.50;99.90
15343;DHT22;7771;48.478;8.936;2023-08-07T06:40:05;15.50;99.90
15343;DHT22;7771;48.478;8.936;2023-08-07T06:42:32;15.60;99.90
15343;DHT22;7771;48.478;8.936;2023-08-07T06:45:00;15.70;99.90
15343;DHT22;7771;48.478;8.936;2023-08-07T06:47:28;15.80;99.90
15343;DHT22;7771;48.478;8.936;2023-08-07T06:49:55;15.80;99.90
15343;DHT22;7771;48.478;8.936;2023-08-07T06:59:46;16.00;99.90
15343;DHT22;7771;48.478;8.936;2023-08-07T07:04:41;16.10;99.90
15343;DHT22;7771;48.478;8.936;2023-08-07T07:07:09;16.10;99.90
15343;DHT22;7771;48.478;8.936;2023-08-07T07:09:36;16.20;99.90
15343;DHT22;7771;48.478;8.936;2023-08-07T07:12:04;16.30;99.90
15343;DHT22;7771;48.478;8.936;2023-08-07T07:14:32;16.40;99.90
15343;DHT22;7771;48.478;8.936;2023-08-07T07:16:58;16.60;99.90
15343;DHT22;7771;48.478;8.936;2023-08-07T07:19:26;16.60;99.90
15343;DHT22;7771;48.478;8.936;2023-08-07T07:21:54;16.60;99.90
15343;DHT22;7771;48.478;8.936;2023-08-07T07:24:21;16.60;99.90
15343;DHT22;7771;48.478;8.936;2023-08-07T07:29:16;16.70;99.90
15343;DHT22;7771;48.478;8.936;2023-08-07T07:31:44;16.70;99.90
15343;DHT22;7771;48.478;8.936;2023-08-07T07:34:11;17.00;99.90
15343;DHT22;7771;48.478;8.936;2023-08-07T07:39:06;17.40;99.90
15343;DHT22;7771;48.478;8.936;2023-08-07T07:41:34;18.00;99.90
15343;DHT22;7771;48.478;8.936;2023-08-07T07:44:00;18.70;99.90
15343;DHT22;7771;48.478;8.936;2023-08-07T07:46:29;19.10;99.90
15343;DHT22;7771;48.478;8.936;2023-08-07T07:48:55;19.70;99.90
15343;DHT22;7771;48.478;8.936;2023-08-07T07:51:23;20.30;99.90
15343;DHT22;7771;48.478;8.936;2023-08-07T07:53:51;20.90;99.90
15343;DHT22;7771;48.478;8.936;2023-08-07T07:58:46;21.80;99.90
15343;DHT22;7771;48.478;8.936;2023-08-07T08:01:13;22.10;99.00
15343;DHT22;7771;48.478;8.936;2023-08-07T08:06:08;21.60;98.10
15343;DHT22;7771;48.478;8.936;2023-08-07T08:08:36;21.10;98.70
15343;DHT22;7771;48.478;8.936;2023-08-07T08:11:04;20.80;99.00
15343;DHT22;7771;48.478;8.936;2023-08-07T08:13:32;20.60;99.20
15343;DHT22;7771;48.478;8.936;2023-08-07T08:18:26;20.30;99.90
15343;DHT22;7771;48.478;8.936;2023-08-07T08:20:54;20.30;99.90
15343;DHT22;7771;48.478;8.936;2023-08-07T08:28:17;20.30;97.30
15343;DHT22;7771;48.478;8.936;2023-08-07T08:30:44;20.40;97.40
15343;DHT22;7771;48.478;8.936;2023-08-07T08:38:08;20.60;96.50
15343;DHT22;7771;48.478;8.936;2023-08-07T08:40:35;20.50;96.10
15343;DHT22;7771;48.478;8.936;2023-08-07T08:48:01;20.10;95.90
15343;DHT22;7771;48.478;8.936;2023-08-07T08:50:27;20.10;96.00
15343;DHT22;7771;48.478;8.936;2023-08-07T08:52:56;20.10;96.50
15343;DHT22;7771;48.478;8.936;2023-08-07T08:57:50;20.10;96.30
15343;DHT22;7771;48.478;8.936;2023-08-07T09:00:17;20.20;96.50
15343;DHT22;7771;48.478;8.936;2023-08-07T09:02:45;20.30;96.10
15343;DHT22;7771;48.478;8.936;2023-08-07T09:07:40;20.40;96.00
15343;DHT22;7771;48.478;8.936;2023-08-07T09:10:09;20.40;96.20
15343;DHT22;7771;48.478;8.936;2023-08-07T09:20:00;21.50;93.60
15343;DHT22;7771;48.478;8.936;2023-08-07T09:22:27;21.80;92.80
15343;DHT22;7771;48.478;8.936;2023-08-07T09:24:55;22.10;91.60
15343;DHT22;7771;48.478;8.936;2023-08-07T09:29:51;22.50;90.30
15343;DHT22;7771;48.478;8.936;2023-08-07T09:34:45;22.50;88.20
15343;DHT22;7771;48.478;8.936;2023-08-07T09:42:13;22.10;90.60
15343;DHT22;7771;48.478;8.936;2023-08-07T09:44:41;22.00;90.70
15343;DHT22;7771;48.478;8.936;2023-08-07T09:52:09;21.90;90.80
15343;DHT22;7771;48.478;8.936;2023-08-07T09:54:35;22.10;91.00
15343;DHT22;7771;48.478;8.936;2023-08-07T09:57:03;22.00;90.90
15343;DHT22;7771;48.478;8.936;2023-08-07T09:59:31;22.00;89.80
15343;DHT22;7771;48.478;8.936;2023-08-07T10:01:56;21.80;89.20
15343;DHT22;7771;48.478;8.936;2023-08-07T10:04:25;21.60;89.70
15343;DHT22;7771;48.478;8.936;2023-08-07T10:06:53;21.40;89.70
15343;DHT22;7771;48.478;8.936;2023-08-07T10:11:49;21.10;91.00
15343;DHT22;7771;48.478;8.936;2023-08-07T10:14:17;21.10;91.70
15343;DHT22;7771;48.478;8.936;2023-08-07T10:16:45;21.30;91.00
15343;DHT22;7771;48.478;8.936;2023-08-07T10:19:13;21.50;90.30
15343;DHT22;7771;48.478;8.936;2023-08-07T10:21:41;21.60;90.00
15343;DHT22;7771;48.478;8.936;2023-08-07T10:24:08;21.70;90.10
15343;DHT22;7771;48.478;8.936;2023-08-07T10:26:37;21.90;90.00
15343;DHT22;7771;48.478;8.936;2023-08-07T10:29:04;22.10;88.70
15343;DHT22;7771;48.478;8.936;2023-08-07T10:31:29;22.10;88.60
15343;DHT22;7771;48.478;8.936;2023-08-07T10:33:58;22.30;89.00
15343;DHT22;7771;48.478;8.936;2023-08-07T10:36:31;22.50;89.00
15343;DHT22;7771;48.478;8.936;2023-08-07T10:39:05;22.80;88.00
15343;DHT22;7771;48.478;8.936;2023-08-07T10:41:20;23.00;88.10
15343;DHT22;7771;48.478;8.936;2023-08-07T10:43:46;23.20;84.90
15343;DHT22;7771;48.478;8.936;2023-08-07T10:46:15;23.20;84.60
15343;DHT22;7771;48.478;8.936;2023-08-07T10:51:15;23.00;84.20
15343;DHT22;7771;48.478;8.936;2023-08-07T10:53:41;23.00;84.50
15343;DHT22;7771;48.478;8.936;2023-08-07T10:58:36;22.90;85.30
15343;DHT22;7771;48.478;8.936;2023-08-07T11:01:17;22.80;85.20
15343;DHT22;7771;48.478;8.936;2023-08-07T11:06:15;22.60;84.90
15343;DHT22;7771;48.478;8.936;2023-08-07T11:08:43;22.70;85.10
15343;DHT22;7771;48.478;8.936;2023-08-07T11:18:35;22.00;84.80
15343;DHT22;7771;48.478;8.936;2023-08-07T11:21:03;21.80;86.00
15343;DHT22;7771;48.478;8.936;2023-08-07T11:23:31;21.60;86.30
15343;DHT22;7771;48.478;8.936;2023-08-07T11:25:58;21.50;84.90
15343;DHT22;7771;48.478;8.936;2023-08-07T11:28:25;21.30;86.80
15343;DHT22;7771;48.478;8.936;2023-08-07T11:30:53;21.10;87.90
15343;DHT22;7771;48.478;8.936;2023-08-07T11:33:20;21.00;88.70
15343;DHT22;7771;48.478;8.936;2023-08-07T11:40:48;20.90;90.50
15343;DHT22;7771;48.478;8.936;2023-08-07T11:45:43;21.10;88.60
15343;DHT22;7771;48.478;8.936;2023-08-07T11:50:38;21.10;90.00
15343;DHT22;7771;48.478;8.936;2023-08-07T11:55:33;21.10;87.70
15343;DHT22;7771;48.478;8.936;2023-08-07T11:58:03;21.00;88.70
15343;DHT22;7771;48.478;8.936;2023-08-07T12:00:31;20.90;88.90
15343;DHT22;7771;48.478;8.936;2023-08-07T12:02:59;20.80;89.30
15343;DHT22;7771;48.478;8.936;2023-08-07T12:05:25;20.60;89.20
15343;DHT22;7771;48.478;8.936;2023-08-07T12:07:53;20.50;89.90
15343;DHT22;7771;48.478;8.936;2023-08-07T12:12:49;20.30;90.40
15343;DHT22;7771;48.478;8.936;2023-08-07T12:15:17;20.20;90.20
15343;DHT22;7771;48.478;8.936;2023-08-07T12:17:44;20.00;90.60
15343;DHT22;7771;48.478;8.936;2023-08-07T12:20:11;19.90;90.90
15343;DHT22;7771;48.478;8.936;2023-08-07T12:22:38;19.90;91.10
15343;DHT22;7771;48.478;8.936;2023-08-07T12:30:02;19.90;90.90
15343;DHT22;7771;48.478;8.936;2023-08-07T12:32:28;19.90;90.90
15343;DHT22;7771;48.478;8.936;2023-08-07T12:37:24;20.10;91.10
15343;DHT22;7771;48.478;8.936;2023-08-07T12:39:51;20.00;91.60
15343;DHT22;7771;48.478;8.936;2023-08-07T12:42:19;19.90;92.00
15343;DHT22;7771;48.478;8.936;2023-08-07T12:44:45;19.90;92.00
15343;DHT22;7771;48.478;8.936;2023-08-07T12:47:13;19.90;92.20
15343;DHT22;7771;48.478;8.936;2023-08-07T12:52:09;19.80;91.80
15343;DHT22;7771;48.478;8.936;2023-08-07T12:54:37;19.70;92.00
15343;DHT22;7771;48.478;8.936;2023-08-07T12:57:05;19.70;92.30
15343;DHT22;7771;48.478;8.936;2023-08-07T12:59:33;19.70;92.40
15343;DHT22;7771;48.478;8.936;2023-08-07T13:02:01;19.80;92.40
15343;DHT22;7771;48.478;8.936;2023-08-07T13:04:28;19.80;92.80
15343;DHT22;7771;48.478;8.936;2023-08-07T13:06:55;19.80;92.90
15343;DHT22;7771;48.478;8.936;2023-08-07T13:09:22;19.70;92.80
15343;DHT22;7771;48.478;8.936;2023-08-07T13:11:50;19.80;92.90
15343;DHT22;7771;48.478;8.936;2023-08-07T13:14:17;19.90;93.20
15343;DHT22;7771;48.478;8.936;2023-08-07T13:16:45;20.00;93.20
15343;DHT22;7771;48.478;8.936;2023-08-07T13:19:12;20.20;93.40
15343;DHT22;7771;48.478;8.936;2023-08-07T13:24:08;20.50;92.50
15343;DHT22;7771;48.478;8.936;2023-08-07T13:29:04;20.60;91.60
15343;DHT22;7771;48.478;8.936;2023-08-07T13:31:30;20.60;91.50
15343;DHT22;7771;48.478;8.936;2023-08-07T13:33:58;20.70;91.20
15343;DHT22;7771;48.478;8.936;2023-08-07T13:36:25;20.80;90.80
15343;DHT22;7771;48.478;8.936;2023-08-07T13:38:52;20.90;91.10
15343;DHT22;7771;48.478;8.936;2023-08-07T13:41:21;21.00;91.00
15343;DHT22;7771;48.478;8.936;2023-08-07T13:43:47;21.10;90.80
15343;DHT22;7771;48.478;8.936;2023-08-07T13:46:15;21.20;91.10
15343;DHT22;7771;48.478;8.936;2023-08-07T13:48:43;21.20;90.80
15343;DHT22;7771;48.478;8.936;2023-08-07T13:51:10;21.30;90.70
15343;DHT22;7771;48.478;8.936;2023-08-07T13:53:38;21.40;91.00
15343;DHT22;7771;48.478;8.936;2023-08-07T13:56:05;21.50;91.10
15343;DHT22;7771;48.478;8.936;2023-08-07T13:58:33;21.60;90.30
15343;DHT22;7771;48.478;8.936;2023-08-07T14:01:01;21.60;90.40
15343;DHT22;7771;48.478;8.936;2023-08-07T14:03:27;21.60;90.10
15343;DHT22;7771;48.478;8.936;2023-08-07T14:08:22;21.60;90.70
15343;DHT22;7771;48.478;8.936;2023-08-07T14:10:49;21.70;90.50
15343;DHT22;7771;48.478;8.936;2023-08-07T14:13:16;21.80;89.90
15343;DHT22;7771;48.478;8.936;2023-08-07T14:18:11;21.70;87.90
15343;DHT22;7771;48.478;8.936;2023-08-07T14:20:38;21.60;87.40
15343;DHT22;7771;48.478;8.936;2023-08-07T14:23:04;21.60;88.30
15343;DHT22;7771;48.478;8.936;2023-08-07T14:35:24;21.40;88.90
15343;DHT22;7771;48.478;8.936;2023-08-07T14:37:51;21.40;88.50
15343;DHT22;7771;48.478;8.936;2023-08-07T14:40:18;21.30;89.80
15343;DHT22;7771;48.478;8.936;2023-08-07T14:42:47;21.20;90.00
15343;DHT22;7771;48.478;8.936;2023-08-07T14:45:15;21.00;90.20
15343;DHT22;7771;48.478;8.936;2023-08-07T14:47:42;20.90;90.60
15343;DHT22;7771;48.478;8.936;2023-08-07T14:50:08;20.80;90.90
15343;DHT22;7771;48.478;8.936;2023-08-07T14:52:36;20.70;91.20
15343;DHT22;7771;48.478;8.936;2023-08-07T14:57:31;20.50;91.80
15343;DHT22;7771;48.478;8.936;2023-08-07T15:02:26;20.60;91.80
15343;DHT22;7771;48.478;8.936;2023-08-07T15:07:22;20.70;91.10
15343;DHT22;7771;48.478;8.936;2023-08-07T15:09:48;20.80;90.60
15343;DHT22;7771;48.478;8.936;2023-08-07T15:12:16;20.80;90.50
15343;DHT22;7771;48.478;8.936;2023-08-07T15:17:10;20.80;90.50
15343;DHT22;7771;48.478;8.936;2023-08-07T15:19:37;20.80;90.30
15343;DHT22;7771;48.478;8.936;2023-08-07T15:22:04;20.90;90.50
15343;DHT22;7771;48.478;8.936;2023-08-07T15:27:00;21.10;89.90
15343;DHT22;7771;48.478;8.936;2023-08-07T15:29:29;21.20;89.40
15343;DHT22;7771;48.478;8.936;2023-08-07T15:34:23;21.20;90.00
15343;DHT22;7771;48.478;8.936;2023-08-07T15:39:19;21.30;88.00
15343;DHT22;7771;48.478;8.936;2023-08-07T15:41:45;21.30;88.00
15343;DHT22;7771;48.478;8.936;2023-08-07T15:46:41;21.20;89.20
15343;DHT22;7771;48.478;8.936;2023-08-07T15:49:08;21.10;89.60
15343;DHT22;7771;48.478;8.936;2023-08-07T15:51:36;21.10;89.80
15343;DHT22;7771;48.478;8.936;2023-08-07T15:54:02;21.00;90.10
15343;DHT22;7771;48.478;8.936;2023-08-07T15:58:58;20.90;90.10
15343;DHT22;7771;48.478;8.936;2023-08-07T16:01:26;20.80;90.20
15343;DHT22;7771;48.478;8.936;2023-08-07T16:03:54;20.70;90.20
15343;DHT22;7771;48.478;8.936;2023-08-07T16:06:20;20.80;90.20
15343;DHT22;7771;48.478;8.936;2023-08-07T16:08:48;20.80;90.60
15343;DHT22;7771;48.478;8.936;2023-08-07T16:13:42;21.00;90.00
15343;DHT22;7771;48.478;8.936;2023-08-07T16:16:09;21.00;90.10
15343;DHT22;7771;48.478;8.936;2023-08-07T16:18:36;21.00;90.20
15343;DHT22;7771;48.478;8.936;2023-08-07T16:21:03;21.10;90.30
15343;DHT22;7771;48.478;8.936;2023-08-07T16:23:29;21.10;90.10
15343;DHT22;7771;48.478;8.936;2023-08-07T16:25:58;21.20;90.40
15343;DHT22;7771;48.478;8.936;2023-08-07T16:28:25;21.10;90.20
15343;DHT22;7771;48.478;8.936;2023-08-07T16:30:53;21.20;89.90
15343;DHT22;7771;48.478;8.936;2023-08-07T16:33:21;21.20;89.70
15343;DHT22;7771;48.478;8.936;2023-08-07T16:35:48;21.20;89.50
15343;DHT22;7771;48.478;8.936;2023-08-07T16:38:15;21.30;90.00
15343;DHT22;7771;48.478;8.936;2023-08-07T16:40:42;21.30;89.80
15343;DHT22;7771;48.478;8.936;2023-08-07T16:43:09;21.30;89.30
15343;DHT22;7771;48.478;8.936;2023-08-07T16:45:36;21.40;88.70
15343;DHT22;7771;48.478;8.936;2023-08-07T16:50:32;21.40;88.90
15343;DHT22;7771;48.478;8.936;2023-08-07T16:55:26;21.20;88.90
15343;DHT22;7771;48.478;8.936;2023-08-07T16:57:54;21.10;89.80
15343;DHT22;7771;48.478;8.936;2023-08-07T17:02:48;21.00;90.20
15343;DHT22;7771;48.478;8.936;2023-08-07T17:05:15;20.80;90.30
15343;DHT22;7771;48.478;8.936;2023-08-07T17:07:43;20.70;90.60
15343;DHT22;7771;48.478;8.936;2023-08-07T17:10:09;20.50;90.70
15343;DHT22;7771;48.478;8.936;2023-08-07T17:12:37;20.50;90.90
15343;DHT22;7771;48.478;8.936;2023-08-07T17:15:04;20.50;90.70
15343;DHT22;7771;48.478;8.936;2023-08-07T17:17:31;20.50;90.60
15343;DHT22;7771;48.478;8.936;2023-08-07T17:22:25;20.40;90.80
15343;DHT22;7771;48.478;8.936;2023-08-07T17:24:53;20.30;90.80
15343;DHT22;7771;48.478;8.936;2023-08-07T17:27:21;20.30;90.70
15343;DHT22;7771;48.478;8.936;2023-08-07T17:29:48;20.30;90.80
15343;DHT22;7771;48.478;8.936;2023-08-07T17:32:15;20.40;90.70
15343;DHT22;7771;48.478;8.936;2023-08-07T17:34:42;20.40;90.70
15343;DHT22;7771;48.478;8.936;2023-08-07T17:37:08;20.40;90.80
15343;DHT22;7771;48.478;8.936;2023-08-07T17:42:04;20.30;90.90
15343;DHT22;7771;48.478;8.936;2023-08-07T17:44:32;20.30;91.00
15343;DHT22;7771;48.478;8.936;2023-08-07T17:46:58;20.20;91.10
15343;DHT22;7771;48.478;8.936;2023-08-07T17:51:53;20.10;91.30
15343;DHT22;7771;48.478;8.936;2023-08-07T17:54:20;20.10;91.20
15343;DHT22;7771;48.478;8.936;2023-08-07T17:56:47;20.00;91.30
15343;DHT22;7771;48.478;8.936;2023-08-07T17:59:15;19.90;92.00
15343;DHT22;7771;48.478;8.936;2023-08-07T18:01:42;19.90;91.60
15343;DHT22;7771;48.478;8.936;2023-08-07T18:04:09;19.90;91.80
15343;DHT22;7771;48.478;8.936;2023-08-07T18:06:37;19.70;91.80
15343;DHT22;7771;48.478;8.936;2023-08-07T18:09:04;19.70;91.90
15343;DHT22;7771;48.478;8.936;2023-08-07T18:11:33;19.50;92.00
15343;DHT22;7771;48.478;8.936;2023-08-07T18:13:59;19.50;92.30
15343;DHT22;7771;48.478;8.936;2023-08-07T18:16:26;19.40;92.50
15343;DHT22;7771;48.478;8.936;2023-08-07T18:18:53;19.30;93.20
15343;DHT22;7771;48.478;8.936;2023-08-07T18:21:21;19.30;92.80
15343;DHT22;7771;48.478;8.936;2023-08-07T18:23:48;19.20;93.20
15343;DHT22;7771;48.478;8.936;2023-08-07T18:26:15;19.10;93.40
15343;DHT22;7771;48.478;8.936;2023-08-07T18:28:42;19.10;93.70
15343;DHT22;7771;48.478;8.936;2023-08-07T18:31:08;19.00;93.70
15343;DHT22;7771;48.478;8.936;2023-08-07T18:36:03;18.90;94.10
15343;DHT22;7771;48.478;8.936;2023-08-07T18:38:30;18.80;94.10
15343;DHT22;7771;48.478;8.936;2023-08-07T18:40:57;18.80;94.20
15343;DHT22;7771;48.478;8.936;2023-08-07T18:43:25;18.80;94.80
15343;DHT22;7771;48.478;8.936;2023-08-07T18:45:53;18.70;94.40
15343;DHT22;7771;48.478;8.936;2023-08-07T18:48:20;18.70;94.60
15343;DHT22;7771;48.478;8.936;2023-08-07T18:50:47;18.60;94.60
15343;DHT22;7771;48.478;8.936;2023-08-07T18:53:14;18.60;94.80
15343;DHT22;7771;48.478;8.936;2023-08-07T18:55:41;18.60;95.00
15343;DHT22;7771;48.478;8.936;2023-08-07T18:58:07;18.50;95.30
15343;DHT22;7771;48.478;8.936;2023-08-07T19:00:34;18.50;95.50
15343;DHT22;7771;48.478;8.936;2023-08-07T19:03:01;18.50;95.70
15343;DHT22;7771;48.478;8.936;2023-08-07T19:05:27;18.40;95.80
15343;DHT22;7771;48.478;8.936;2023-08-07T19:07:55;18.30;95.90
15343;DHT22;7771;48.478;8.936;2023-08-07T19:10:21;18.30;96.20
15343;DHT22;7771;48.478;8.936;2023-08-07T19:12:49;18.30;96.30
15343;DHT22;7771;48.478;8.936;2023-08-07T19:17:43;18.20;96.50
15343;DHT22;7771;48.478;8.936;2023-08-07T19:20:11;18.10;96.60
15343;DHT22;7771;48.478;8.936;2023-08-07T19:25:07;18.10;97.00